sensor_id;sensor_type;location;lat;lon;timestamp;P1;durP1;ratioP1;P2;durP2;ratioP2
38853;SDS011;24606;51.992;4.198;2023-08-21T00:01:59;2.28;;;0.90;;
38853;SDS011;24606;51.992;4.198;2023-08-21T00:07:01;3.20;;;0.90;;
38853;SDS011;24606;51.992;4.198;2023-08-21T00:12:05;1.48;;;0.82;;
38853;SDS011;24606;51.992;4.198;2023-08-21T00:17:07;3.00;;;0.90;;
38853;SDS011;24606;51.992;4.198;2023-08-21T00:22:10;1.50;;;0.70;;
38853;SDS011;24606;51.992;4.198;2023-08-21T00:27:13;1.83;;;0.80;;
38853;SDS011;24606;51.992;4.198;2023-08-21T00:32:15;2.40;;;0.88;;
38853;SDS011;24606;51.992;4.198;2023-08-21T00:37:17;2.63;;;0.93;;
38853;SDS011;24606;51.992;4.198;2023-08-21T00:42:21;2.17;;;0.75;;
38853;SDS011;24606;51.992;4.198;2023-08-21T00:47:23;4.35;;;0.80;;
38853;SDS011;24606;51.992;4.198;2023-08-21T00:52:26;4.10;;;0.90;;
38853;SDS011;24606;51.992;4.198;2023-08-21T00:57:29;2.40;;;0.70;;
38853;SDS011;24606;51.992;4.198;2023-08-21T01:02:31;2.83;;;0.77;;
38853;SDS011;24606;51.992;4.198;2023-08-21T01:07:33;4.32;;;1.25;;
38853;SDS011;24606;51.992;4.198;2023-08-21T01:12:45;3.45;;;0.90;;
38853;SDS011;24606;51.992;4.198;2023-08-21T01:17:51;1.63;;;0.60;;
38853;SDS011;24606;51.992;4.198;2023-08-21T01:22:54;1.23;;;0.63;;
38853;SDS011;24606;51.992;4.198;2023-08-21T01:27:58;4.68;;;0.80;;
38853;SDS011;24606;51.992;4.198;2023-08-21T01:33:01;5.47;;;0.93;;
38853;SDS011;24606;51.992;4.198;2023-08-21T01:38:07;1.75;;;0.50;;
38853;SDS011;24606;51.992;4.198;2023-08-21T01:43:11;1.35;;;0.60;;
38853;SDS011;24606;51.992;4.198;2023-08-21T01:48:12;1.20;;;0.70;;
38853;SDS011;24606;51.992;4.198;2023-08-21T01:53:14;1.90;;;0.70;;
38853;SDS011;24606;51.992;4.198;2023-08-21T01:58:17;1.05;;;0.50;;
38853;SDS011;24606;51.992;4.198;2023-08-21T02:03:19;1.70;;;0.60;;
38853;SDS011;24606;51.992;4.198;2023-08-21T02:08:21;1.88;;;0.70;;
38853;SDS011;24606;51.992;4.198;2023-08-21T02:13:24;1.33;;;0.60;;
38853;SDS011;24606;51.992;4.198;2023-08-21T02:18:26;2.53;;;0.77;;
38853;SDS011;24606;51.992;4.198;2023-08-21T02:23:28;2.90;;;0.70;;
38853;SDS011;24606;51.992;4.198;2023-08-21T02:28:31;2.25;;;0.85;;
38853;SDS011;24606;51.992;4.198;2023-08-21T02:33:33;2.63;;;0.80;;
38853;SDS011;24606;51.992;4.198;2023-08-21T02:38:35;1.80;;;0.55;;
38853;SDS011;24606;51.992;4.198;2023-08-21T02:43:38;1.45;;;0.77;;
38853;SDS011;24606;51.992;4.198;2023-08-21T02:48:40;1.55;;;0.77;;
38853;SDS011;24606;51.992;4.198;2023-08-21T02:53:42;1.23;;;0.50;;
38853;SDS011;24606;51.992;4.198;2023-08-21T03:15:28;3.58;;;0.60;;
38853;SDS011;24606;51.992;4.198;2023-08-21T03:20:30;1.00;;;0.65;;
38853;SDS011;24606;51.992;4.198;2023-08-21T03:25:32;1.85;;;0.80;;
38853;SDS011;24606;51.992;4.198;2023-08-21T03:30:35;1.20;;;0.77;;
38853;SDS011;24606;51.992;4.198;2023-08-21T03:35:39;1.70;;;0.60;;
38853;SDS011;24606;51.992;4.198;2023-08-21T03:40:41;1.00;;;0.60;;
38853;SDS011;24606;51.992;4.198;2023-08-21T03:45:44;2.75;;;0.90;;
38853;SDS011;24606;51.992;4.198;2023-08-21T03:50:46;1.13;;;0.73;;
38853;SDS011;24606;51.992;4.198;2023-08-21T03:55:48;2.17;;;0.80;;
38853;SDS011;24606;51.992;4.198;2023-08-21T04:00:51;2.80;;;1.20;;
38853;SDS011;24606;51.992;4.198;2023-08-21T04:05:53;2.08;;;0.80;;
38853;SDS011;24606;51.992;4.198;2023-08-21T04:10:56;1.15;;;0.63;;
38853;SDS011;24606;51.992;4.198;2023-08-21T04:16:01;4.32;;;1.00;;
38853;SDS011;24606;51.992;4.198;2023-08-21T04:21:03;2.95;;;0.98;;
38853;SDS011;24606;51.992;4.198;2023-08-21T04:26:05;3.33;;;0.88;;
38853;SDS011;24606;51.992;4.198;2023-08-21T04:31:09;4.00;;;0.88;;
38853;SDS011;24606;51.992;4.198;2023-08-21T04:36:14;1.00;;;0.50;;
38853;SDS011;24606;51.992;4.198;2023-08-21T04:41:17;2.00;;;0.77;;
38853;SDS011;24606;51.992;4.198;2023-08-21T04:46:20;2.08;;;1.08;;
38853;SDS011;24606;51.992;4.198;2023-08-21T04:51:21;4.50;;;1.00;;
38853;SDS011;24606;51.992;4.198;2023-08-21T04:56:23;2.83;;;1.38;;
38853;SDS011;24606;51.992;4.198;2023-08-21T05:01:26;4.60;;;1.20;;
38853;SDS011;24606;51.992;4.198;2023-08-21T05:06:28;1.77;;;0.80;;
38853;SDS011;24606;51.992;4.198;2023-08-21T05:11:30;1.60;;;0.90;;
38853;SDS011;24606;51.992;4.198;2023-08-21T05:16:33;5.47;;;0.90;;
38853;SDS011;24606;51.992;4.198;2023-08-21T05:21:36;4.78;;;0.88;;
38853;SDS011;24606;51.992;4.198;2023-08-21T05:26:38;2.63;;;1.00;;
38853;SDS011;24606;51.992;4.198;2023-08-21T05:31:41;4.20;;;0.90;;
38853;SDS011;24606;51.992;4.198;2023-08-21T05:36:43;5.10;;;1.10;;
38853;SDS011;24606;51.992;4.198;2023-08-21T05:41:45;7.60;;;0.90;;
38853;SDS011;24606;51.992;4.198;2023-08-21T05:46:48;2.88;;;1.00;;
38853;SDS011;24606;51.992;4.198;2023-08-21T05:51:50;2.97;;;1.42;;
38853;SDS011;24606;51.992;4.198;2023-08-21T05:56:52;6.05;;;1.70;;
38853;SDS011;24606;51.992;4.198;2023-08-21T06:01:55;4.82;;;1.25;;
38853;SDS011;24606;51.992;4.198;2023-08-21T06:06:57;5.20;;;1.55;;
38853;SDS011;24606;51.992;4.198;2023-08-21T06:11:58;4.50;;;1.50;;
38853;SDS011;24606;51.992;4.198;2023-08-21T06:17:02;5.65;;;1.52;;
38853;SDS011;24606;51.992;4.198;2023-08-21T06:22:05;5.78;;;1.80;;
38853;SDS011;24606;51.992;4.198;2023-08-21T06:27:07;6.80;;;1.77;;
38853;SDS011;24606;51.992;4.198;2023-08-21T06:32:10;6.90;;;1.67;;
38853;SDS011;24606;51.992;4.198;2023-08-21T06:37:12;6.28;;;1.60;;
38853;SDS011;24606;51.992;4.198;2023-08-21T06:42:14;3.17;;;1.10;;
38853;SDS011;24606;51.992;4.198;2023-08-21T06:47:17;4.22;;;1.33;;
38853;SDS011;24606;51.992;4.198;2023-08-21T06:52:19;5.05;;;1.33;;
38853;SDS011;24606;51.992;4.198;2023-08-21T06:57:21;11.93;;;1.92;;
38853;SDS011;24606;51.992;4.198;2023-08-21T07:02:25;8.00;;;1.50;;
38853;SDS011;24606;51.992;4.198;2023-08-21T07:07:27;5.10;;;1.40;;
38853;SDS011;24606;51.992;4.198;2023-08-21T07:12:28;8.18;;;1.50;;
38853;SDS011;24606;51.992;4.198;2023-08-21T07:17:32;8.45;;;2.05;;
38853;SDS011;24606;51.992;4.198;2023-08-21T07:22:34;10.60;;;2.03;;
38853;SDS011;24606;51.992;4.198;2023-08-21T07:27:35;8.15;;;2.00;;
38853;SDS011;24606;51.992;4.198;2023-08-21T07:32:40;4.47;;;1.23;;
38853;SDS011;24606;51.992;4.198;2023-08-21T07:37:43;10.35;;;2.63;;
38853;SDS011;24606;51.992;4.198;2023-08-21T07:42:45;6.13;;;1.27;;
38853;SDS011;24606;51.992;4.198;2023-08-21T07:47:48;7.95;;;1.67;;
38853;SDS011;24606;51.992;4.198;2023-08-21T07:52:50;3.92;;;1.58;;
38853;SDS011;24606;51.992;4.198;2023-08-21T07:57:51;6.97;;;1.40;;
38853;SDS011;24606;51.992;4.198;2023-08-21T08:02:55;5.07;;;1.30;;
38853;SDS011;24606;51.992;4.198;2023-08-21T08:07:56;10.05;;;1.05;;
38853;SDS011;24606;51.992;4.198;2023-08-21T08:12:58;9.45;;;1.52;;
38853;SDS011;24606;51.992;4.198;2023-08-21T08:18:02;6.25;;;1.00;;
38853;SDS011;24606;51.992;4.198;2023-08-21T08:23:05;4.85;;;1.02;;
38853;SDS011;24606;51.992;4.198;2023-08-21T08:28:07;1.88;;;0.88;;
38853;SDS011;24606;51.992;4.198;2023-08-21T08:33:11;6.53;;;1.20;;
38853;SDS011;24606;51.992;4.198;2023-08-21T08:38:12;4.68;;;1.10;;
38853;SDS011;24606;51.992;4.198;2023-08-21T08:43:14;7.22;;;0.80;;
38853;SDS011;24606;51.992;4.198;2023-08-21T08:48:17;2.22;;;0.85;;
38853;SDS011;24606;51.992;4.198;2023-08-21T08:53:21;7.00;;;1.40;;
38853;SDS011;24606;51.992;4.198;2023-08-21T08:58:23;4.07;;;1.08;;
38853;SDS011;24606;51.992;4.198;2023-08-21T09:03:27;6.20;;;1.20;;
38853;SDS011;24606;51.992;4.198;2023-08-21T09:08:29;3.63;;;0.80;;
38853;SDS011;24606;51.992;4.198;2023-08-21T09:13:31;6.15;;;1.10;;
38853;SDS011;24606;51.992;4.198;2023-08-21T09:18:35;2.35;;;0.80;;
38853;SDS011;24606;51.992;4.198;2023-08-21T09:23:37;2.92;;;0.98;;
38853;SDS011;24606;51.992;4.198;2023-08-21T09:28:39;3.90;;;0.70;;
38853;SDS011;24606;51.992;4.198;2023-08-21T09:33:42;2.58;;;0.80;;
38853;SDS011;24606;51.992;4.198;2023-08-21T09:38:45;6.75;;;1.25;;
38853;SDS011;24606;51.992;4.198;2023-08-21T09:43:49;0.82;;;0.52;;
38853;SDS011;24606;51.992;4.198;2023-08-21T09:48:52;6.22;;;1.40;;
38853;SDS011;24606;51.992;4.198;2023-08-21T09:53:54;3.95;;;1.00;;
38853;SDS011;24606;51.992;4.198;2023-08-21T09:58:58;2.58;;;0.70;;
38853;SDS011;24606;51.992;4.198;2023-08-21T10:04:01;4.00;;;0.95;;
38853;SDS011;24606;51.992;4.198;2023-08-21T10:09:04;2.55;;;0.70;;
38853;SDS011;24606;51.992;4.198;2023-08-21T10:14:07;5.13;;;0.90;;
38853;SDS011;24606;51.992;4.198;2023-08-21T10:19:13;2.30;;;0.82;;
38853;SDS011;24606;51.992;4.198;2023-08-21T10:24:28;3.08;;;0.80;;
38853;SDS011;24606;51.992;4.198;2023-08-21T10:29:38;4.30;;;0.70;;
38853;SDS011;24606;51.992;4.198;2023-08-21T10:34:41;2.00;;;0.70;;
38853;SDS011;24606;51.992;4.198;2023-08-21T10:39:54;1.75;;;0.60;;
38853;SDS011;24606;51.992;4.198;2023-08-21T10:44:57;4.85;;;0.73;;
38853;SDS011;24606;51.992;4.198;2023-08-21T10:50:01;3.95;;;0.75;;
38853;SDS011;24606;51.992;4.198;2023-08-21T10:55:04;1.88;;;0.57;;
38853;SDS011;24606;51.992;4.198;2023-08-21T11:00:07;2.90;;;1.13;;
38853;SDS011;24606;51.992;4.198;2023-08-21T11:05:13;1.63;;;0.88;;
38853;SDS011;24606;51.992;4.198;2023-08-21T11:10:16;1.73;;;0.70;;
38853;SDS011;24606;51.992;4.198;2023-08-21T11:15:18;1.65;;;0.70;;
38853;SDS011;24606;51.992;4.198;2023-08-21T11:20:22;4.78;;;1.00;;
38853;SDS011;24606;51.992;4.198;2023-08-21T11:25:28;3.88;;;0.80;;
38853;SDS011;24606;51.992;4.198;2023-08-21T11:30:31;5.38;;;0.98;;
38853;SDS011;24606;51.992;4.198;2023-08-21T11:35:34;1.17;;;0.73;;
38853;SDS011;24606;51.992;4.198;2023-08-21T11:40:37;2.05;;;0.80;;
38853;SDS011;24606;51.992;4.198;2023-08-21T11:45:38;4.78;;;1.02;;
38853;SDS011;24606;51.992;4.198;2023-08-21T11:50:41;6.75;;;1.20;;
38853;SDS011;24606;51.992;4.198;2023-08-21T11:55:44;2.22;;;1.02;;
38853;SDS011;24606;51.992;4.198;2023-08-21T12:00:47;5.03;;;0.98;;
38853;SDS011;24606;51.992;4.198;2023-08-21T12:05:51;6.63;;;1.10;;
38853;SDS011;24606;51.992;4.198;2023-08-21T12:10:52;5.88;;;0.90;;
38853;SDS011;24606;51.992;4.198;2023-08-21T12:15:54;3.92;;;0.57;;
38853;SDS011;24606;51.992;4.198;2023-08-21T12:20:58;5.60;;;1.00;;
38853;SDS011;24606;51.992;4.198;2023-08-21T12:26:00;5.05;;;0.82;;
38853;SDS011;24606;51.992;4.198;2023-08-21T12:31:01;6.20;;;0.90;;
38853;SDS011;24606;51.992;4.198;2023-08-21T12:36:05;1.25;;;0.50;;
38853;SDS011;24606;51.992;4.198;2023-08-21T12:41:09;2.90;;;0.73;;
38853;SDS011;24606;51.992;4.198;2023-08-21T12:46:10;1.50;;;0.60;;
38853;SDS011;24606;51.992;4.198;2023-08-21T12:51:14;1.83;;;0.50;;
38853;SDS011;24606;51.992;4.198;2023-08-21T12:56:16;1.40;;;0.60;;
38853;SDS011;24606;51.992;4.198;2023-08-21T13:01:18;2.33;;;0.90;;
38853;SDS011;24606;51.992;4.198;2023-08-21T13:06:21;7.93;;;1.52;;
38853;SDS011;24606;51.992;4.198;2023-08-21T13:11:23;3.33;;;1.23;;
38853;SDS011;24606;51.992;4.198;2023-08-21T13:16:25;5.78;;;1.20;;
38853;SDS011;24606;51.992;4.198;2023-08-21T13:21:28;4.50;;;1.20;;
38853;SDS011;24606;51.992;4.198;2023-08-21T13:26:30;4.30;;;0.93;;
38853;SDS011;24606;51.992;4.198;2023-08-21T13:31:33;2.22;;;0.90;;
38853;SDS011;24606;51.992;4.198;2023-08-21T13:36:37;5.07;;;1.17;;
38853;SDS011;24606;51.992;4.198;2023-08-21T13:41:39;2.83;;;1.10;;
38853;SDS011;24606;51.992;4.198;2023-08-21T13:46:41;3.13;;;1.15;;
38853;SDS011;24606;51.992;4.198;2023-08-21T13:51:44;4.00;;;1.00;;
38853;SDS011;24606;51.992;4.198;2023-08-21T13:56:46;3.25;;;1.08;;
38853;SDS011;24606;51.992;4.198;2023-08-21T14:01:48;2.85;;;1.00;;
38853;SDS011;24606;51.992;4.198;2023-08-21T14:06:51;3.22;;;0.80;;
38853;SDS011;24606;51.992;4.198;2023-08-21T14:11:53;6.70;;;1.30;;
38853;SDS011;24606;51.992;4.198;2023-08-21T14:16:54;1.98;;;1.00;;
38853;SDS011;24606;51.992;4.198;2023-08-21T14:21:58;3.28;;;0.90;;
38853;SDS011;24606;51.992;4.198;2023-08-21T14:27:00;3.55;;;1.10;;
38853;SDS011;24606;51.992;4.198;2023-08-21T14:32:02;1.50;;;0.70;;
38853;SDS011;24606;51.992;4.198;2023-08-21T14:37:06;3.00;;;0.70;;
38853;SDS011;24606;51.992;4.198;2023-08-21T14:42:08;1.48;;;0.60;;
38853;SDS011;24606;51.992;4.198;2023-08-21T14:47:10;1.45;;;0.60;;
38853;SDS011;24606;51.992;4.198;2023-08-21T14:52:13;1.48;;;0.52;;
38853;SDS011;24606;51.992;4.198;2023-08-21T14:57:15;1.00;;;0.50;;
38853;SDS011;24606;51.992;4.198;2023-08-21T15:02:16;4.63;;;0.63;;
38853;SDS011;24606;51.992;4.198;2023-08-21T15:07:20;3.03;;;0.82;;
38853;SDS011;24606;51.992;4.198;2023-08-21T15:12:22;3.70;;;0.80;;
38853;SDS011;24606;51.992;4.198;2023-08-21T15:17:24;2.17;;;0.57;;
38853;SDS011;24606;51.992;4.198;2023-08-21T15:22:27;2.38;;;0.93;;
38853;SDS011;24606;51.992;4.198;2023-08-21T15:27:29;6.90;;;0.95;;
38853;SDS011;24606;51.992;4.198;2023-08-21T15:32:31;4.22;;;0.98;;
38853;SDS011;24606;51.992;4.198;2023-08-21T15:37:34;4.90;;;1.10;;
38853;SDS011;24606;51.992;4.198;2023-08-21T15:42:36;1.98;;;0.73;;
38853;SDS011;24606;51.992;4.198;2023-08-21T15:47:38;6.43;;;0.70;;
38853;SDS011;24606;51.992;4.198;2023-08-21T15:52:42;2.00;;;0.50;;
38853;SDS011;24606;51.992;4.198;2023-08-21T15:57:44;3.85;;;0.93;;
38853;SDS011;24606;51.992;4.198;2023-08-21T16:02:46;5.55;;;0.88;;
38853;SDS011;24606;51.992;4.198;2023-08-21T16:07:50;1.50;;;0.65;;
38853;SDS011;24606;51.992;4.198;2023-08-21T16:12:53;2.70;;;0.85;;
38853;SDS011;24606;51.992;4.198;2023-08-21T16:17:55;1.02;;;0.60;;
38853;SDS011;24606;51.992;4.198;2023-08-21T16:22:59;2.40;;;0.50;;
38853;SDS011;24606;51.992;4.198;2023-08-21T16:28:00;1.50;;;0.47;;
38853;SDS011;24606;51.992;4.198;2023-08-21T16:33:03;1.20;;;0.50;;
38853;SDS011;24606;51.992;4.198;2023-08-21T16:38:07;1.08;;;0.50;;
38853;SDS011;24606;51.992;4.198;2023-08-21T16:43:08;1.20;;;0.60;;
38853;SDS011;24606;51.992;4.198;2023-08-21T16:48:10;1.60;;;0.50;;
38853;SDS011;24606;51.992;4.198;2023-08-21T16:53:13;0.85;;;0.55;;
38853;SDS011;24606;51.992;4.198;2023-08-21T16:58:16;0.60;;;0.40;;
38853;SDS011;24606;51.992;4.198;2023-08-21T17:03:17;0.88;;;0.45;;
38853;SDS011;24606;51.992;4.198;2023-08-21T17:08:21;2.30;;;0.50;;
38853;SDS011;24606;51.992;4.198;2023-08-21T17:13:23;0.93;;;0.50;;
38853;SDS011;24606;51.992;4.198;2023-08-21T17:18:25;2.55;;;0.60;;
38853;SDS011;24606;51.992;4.198;2023-08-21T17:23:28;1.38;;;0.70;;
38853;SDS011;24606;51.992;4.198;2023-08-21T17:28:30;1.45;;;0.60;;
38853;SDS011;24606;51.992;4.198;2023-08-21T17:33:32;1.30;;;0.70;;
38853;SDS011;24606;51.992;4.198;2023-08-21T17:38:39;1.35;;;0.60;;
38853;SDS011;24606;51.992;4.198;2023-08-21T17:43:40;1.25;;;0.60;;
38853;SDS011;24606;51.992;4.198;2023-08-21T17:48:43;3.65;;;0.68;;
38853;SDS011;24606;51.992;4.198;2023-08-21T17:53:46;1.63;;;0.50;;
38853;SDS011;24606;51.992;4.198;2023-08-21T17:58:49;2.33;;;0.70;;
38853;SDS011;24606;51.992;4.198;2023-08-21T18:03:51;3.03;;;0.80;;
38853;SDS011;24606;51.992;4.198;2023-08-21T18:08:54;1.88;;;0.68;;
38853;SDS011;24606;51.992;4.198;2023-08-21T18:13:56;1.83;;;0.90;;
38853;SDS011;24606;51.992;4.198;2023-08-21T18:18:58;1.80;;;0.75;;
38853;SDS011;24606;51.992;4.198;2023-08-21T18:24:01;2.22;;;0.60;;
38853;SDS011;24606;51.992;4.198;2023-08-21T18:29:03;1.98;;;0.80;;
38853;SDS011;24606;51.992;4.198;2023-08-21T18:34:05;0.90;;;0.60;;
38853;SDS011;24606;51.992;4.198;2023-08-21T18:39:08;1.17;;;0.60;;
38853;SDS011;24606;51.992;4.198;2023-08-21T18:44:12;4.15;;;0.95;;
38853;SDS011;24606;51.992;4.198;2023-08-21T18:49:14;1.35;;;1.00;;
38853;SDS011;24606;51.992;4.198;2023-08-21T18:54:17;1.67;;;1.00;;
38853;SDS011;24606;51.992;4.198;2023-08-21T18:59:23;2.15;;;0.80;;
38853;SDS011;24606;51.992;4.198;2023-08-21T19:04:25;1.55;;;0.70;;
38853;SDS011;24606;51.992;4.198;2023-08-21T19:09:28;1.13;;;0.60;;
38853;SDS011;24606;51.992;4.198;2023-08-21T19:14:30;2.60;;;1.30;;
38853;SDS011;24606;51.992;4.198;2023-08-21T19:19:32;1.52;;;0.70;;
38853;SDS011;24606;51.992;4.198;2023-08-21T19:24:35;3.33;;;0.80;;
38853;SDS011;24606;51.992;4.198;2023-08-21T19:29:37;0.85;;;0.55;;
38853;SDS011;24606;51.992;4.198;2023-08-21T19:34:38;3.13;;;0.80;;
38853;SDS011;24606;51.992;4.198;2023-08-21T19:39:42;5.15;;;1.38;;
38853;SDS011;24606;51.992;4.198;2023-08-21T19:44:43;2.88;;;0.80;;
38853;SDS011;24606;51.992;4.198;2023-08-21T19:49:45;1.30;;;0.75;;
38853;SDS011;24606;51.992;4.198;2023-08-21T19:54:48;4.10;;;0.95;;
38853;SDS011;24606;51.992;4.198;2023-08-21T19:59:51;2.72;;;1.10;;
38853;SDS011;24606;51.992;4.198;2023-08-21T20:04:53;3.05;;;0.95;;
38853;SDS011;24606;51.992;4.198;2023-08-21T20:09:57;2.17;;;0.77;;
38853;SDS011;24606;51.992;4.198;2023-08-21T20:14:58;4.70;;;1.17;;
38853;SDS011;24606;51.992;4.198;2023-08-21T20:20:00;1.65;;;0.82;;
38853;SDS011;24606;51.992;4.198;2023-08-21T20:25:05;3.17;;;1.00;;
38853;SDS011;24606;51.992;4.198;2023-08-21T20:30:08;2.95;;;1.00;;
38853;SDS011;24606;51.992;4.198;2023-08-21T20:35:11;3.90;;;1.00;;
38853;SDS011;24606;51.992;4.198;2023-08-21T20:40:14;2.78;;;0.82;;
38853;SDS011;24606;51.992;4.198;2023-08-21T20:45:16;5.72;;;1.38;;
38853;SDS011;24606;51.992;4.198;2023-08-21T20:50:19;5.38;;;1.00;;
38853;SDS011;24606;51.992;4.198;2023-08-21T20:55:22;3.63;;;1.00;;
38853;SDS011;24606;51.992;4.198;2023-08-21T21:00:24;5.35;;;1.50;;
38853;SDS011;24606;51.992;4.198;2023-08-21T21:05:26;2.83;;;1.00;;
38853;SDS011;24606;51.992;4.198;2023-08-21T21:10:29;4.15;;;1.00;;
38853;SDS011;24606;51.992;4.198;2023-08-21T21:15:31;2.70;;;1.23;;
38853;SDS011;24606;51.992;4.198;2023-08-21T21:20:33;4.72;;;0.85;;
38853;SDS011;24606;51.992;4.198;2023-08-21T21:25:37;2.45;;;1.30;;
38853;SDS011;24606;51.992;4.198;2023-08-21T21:30:39;2.40;;;1.30;;
38853;SDS011;24606;51.992;4.198;2023-08-21T21:35:41;1.67;;;0.90;;
38853;SDS011;24606;51.992;4.198;2023-08-21T21:40:44;1.77;;;1.10;;
38853;SDS011;24606;51.992;4.198;2023-08-21T21:45:53;2.25;;;1.00;;
38853;SDS011;24606;51.992;4.198;2023-08-21T21:50:56;2.13;;;1.00;;
38853;SDS011;24606;51.992;4.198;2023-08-21T21:55:59;2.28;;;1.50;;
38853;SDS011;24606;51.992;4.198;2023-08-21T22:01:04;3.50;;;1.15;;
38853;SDS011;24606;51.992;4.198;2023-08-21T22:06:06;1.70;;;1.02;;
38853;SDS011;24606;51.992;4.198;2023-08-21T22:11:10;2.63;;;1.25;;
38853;SDS011;24606;51.992;4.198;2023-08-21T22:16:12;2.22;;;1.20;;
38853;SDS011;24606;51.992;4.198;2023-08-21T22:21:15;2.50;;;1.13;;
38853;SDS011;24606;51.992;4.198;2023-08-21T22:26:18;3.80;;;1.15;;
38853;SDS011;24606;51.992;4.198;2023-08-21T22:31:20;2.35;;;1.33;;
38853;SDS011;24606;51.992;4.198;2023-08-21T22:36:22;2.97;;;1.38;;
38853;SDS011;24606;51.992;4.198;2023-08-21T22:41:25;1.92;;;1.15;;
38853;SDS011;24606;51.992;4.198;2023-08-21T22:46:27;1.92;;;1.20;;
38853;SDS011;24606;51.992;4.198;2023-08-21T22:51:29;1.65;;;0.93;;
38853;SDS011;24606;51.992;4.198;2023-08-21T22:56:32;2.25;;;1.15;;
38853;SDS011;24606;51.992;4.198;2023-08-21T23:01:34;1.73;;;1.10;;
38853;SDS011;24606;51.992;4.198;2023-08-21T23:06:36;2.28;;;0.90;;
38853;SDS011;24606;51.992;4.198;2023-08-21T23:11:39;2.10;;;1.05;;
38853;SDS011;24606;51.992;4.198;2023-08-21T23:16:41;2.05;;;1.10;;
38853;SDS011;24606;51.992;4.198;2023-08-21T23:21:43;2.28;;;1.05;;
38853;SDS011;24606;51.992;4.198;2023-08-21T23:26:47;2.22;;;1.20;;
38853;SDS011;24606;51.992;4.198;2023-08-21T23:31:48;1.58;;;1.10;;
38853;SDS011;24606;51.992;4.198;2023-08-21T23:36:50;1.08;;;0.80;;
38853;SDS011;24606;51.992;4.198;2023-08-21T23:41:53;1.25;;;0.93;;
38853;SDS011;24606;51.992;4.198;2023-08-21T23:46:55;1.63;;;0.98;;
38853;SDS011;24606;51.992;4.198;2023-08-21T23:51:57;1.02;;;0.70;;
38853;SDS011;24606;51.992;4.198;2023-08-21T23:57:00;2.13;;;1.00;;
